createdAt,value
2017-11-03T00:01:30.345Z,24.30
2017-11-03T00:03:57.898Z,24.60
2017-11-03T00:06:25.366Z,23.83
2017-11-03T00:08:53.227Z,25.33
2017-11-03T00:11:20.767Z,24.73
2017-11-03T00:13:49.071Z,25.63
2017-11-03T00:16:18.481Z,25.27
2017-11-03T00:18:45.975Z,25.77
2017-11-03T00:21:13.514Z,25.57
2017-11-03T00:23:41.450Z,26.63
2017-11-03T00:26:09.009Z,24.47
2017-11-03T00:28:36.839Z,24.87
2017-11-03T00:31:04.406Z,26.63
2017-11-03T00:33:31.916Z,25.20
2017-11-03T00:35:59.414Z,22.90
2017-11-03T00:38:26.991Z,25.57
2017-11-03T00:40:54.536Z,26.23
2017-11-03T00:43:23.077Z,25.53
2017-11-03T00:45:50.563Z,25.30
2017-11-03T00:48:18.051Z,26.33
2017-11-03T00:50:45.563Z,26.10
2017-11-03T00:53:13.094Z,26.47
2017-11-03T00:55:40.680Z,28.10
2017-11-03T00:58:08.268Z,26.53
2017-11-03T01:00:35.729Z,26.90
2017-11-03T01:03:03.208Z,26.97
2017-11-03T01:05:30.730Z,27.93
2017-11-03T01:07:58.203Z,29.13
2017-11-03T01:10:25.747Z,26.77
2017-11-03T01:12:54.477Z,28.87
2017-11-03T01:15:22.859Z,28.83
2017-11-03T01:17:50.458Z,27.53
2017-11-03T01:20:18.010Z,28.40
2017-11-03T01:22:45.565Z,27.70
2017-11-03T01:25:13.124Z,26.67
2017-11-03T01:27:40.688Z,28.97
2017-11-03T01:30:08.312Z,28.90
2017-11-03T01:32:36.029Z,29.13
2017-11-03T01:35:03.654Z,28.97
2017-11-03T01:37:31.197Z,27.63
2017-11-03T01:39:58.793Z,29.47
2017-11-03T01:42:26.339Z,30.63
2017-11-03T01:44:54.121Z,31.47
2017-11-03T01:47:21.742Z,29.93
2017-11-03T01:49:49.350Z,29.33
2017-11-03T01:52:17.573Z,29.73
2017-11-03T01:54:46.014Z,30.67
2017-11-03T01:57:13.571Z,29.67
2017-11-03T01:59:41.131Z,29.83
2017-11-03T02:02:08.682Z,30.07
2017-11-03T02:04:37.100Z,30.10
2017-11-03T02:07:04.696Z,29.47
2017-11-03T02:09:33.080Z,30.77
2017-11-03T02:12:01.437Z,30.60
2017-11-03T02:14:28.947Z,28.53
2017-11-03T02:16:57.464Z,28.50
2017-11-03T02:19:25.473Z,25.97
2017-11-03T02:21:53.081Z,27.57
2017-11-03T02:24:20.648Z,30.77
2017-11-03T02:26:48.212Z,30.30
2017-11-03T02:29:15.746Z,31.63
2017-11-03T02:31:44.021Z,31.10
2017-11-03T02:34:11.680Z,29.53
2017-11-03T02:36:39.201Z,29.47
2017-11-03T02:39:06.685Z,28.83
2017-11-03T02:41:34.162Z,29.70
2017-11-03T02:44:02.042Z,29.90
2017-11-03T02:46:29.563Z,31.33
2017-11-03T02:48:57.124Z,28.67
2017-11-03T02:51:24.665Z,29.53
2017-11-03T02:53:52.191Z,29.97
2017-11-03T02:56:19.717Z,28.00
2017-11-03T02:58:47.222Z,29.97
2017-11-03T03:01:14.749Z,29.23
2017-11-03T03:03:42.244Z,30.77
2017-11-03T03:06:09.719Z,29.87
2017-11-03T03:08:37.230Z,30.50
2017-11-03T03:11:04.720Z,30.03
2017-11-03T03:13:32.207Z,30.70
2017-11-03T03:15:59.673Z,30.03
2017-11-03T03:18:27.533Z,30.73
2017-11-03T03:20:56.043Z,30.23
2017-11-03T03:23:23.537Z,29.00
2017-11-03T03:25:51.015Z,31.50
2017-11-03T03:28:18.573Z,27.40
2017-11-03T03:30:46.034Z,30.13
2017-11-03T03:33:13.504Z,27.77
2017-11-03T03:35:41.013Z,29.13
2017-11-03T03:38:08.486Z,32.67
2017-11-03T03:40:36.024Z,31.73
2017-11-03T03:43:03.487Z,29.87
2017-11-03T03:45:31.001Z,30.87
2017-11-03T03:47:58.457Z,32.80
2017-11-03T03:50:26.002Z,29.50
2017-11-03T03:52:53.488Z,31.07
2017-11-03T03:55:20.958Z,32.43
2017-11-03T03:57:48.458Z,31.83
2017-11-03T04:00:15.928Z,31.30
2017-11-03T04:02:43.455Z,32.80
2017-11-03T04:05:10.964Z,28.40
2017-11-03T04:07:38.528Z,27.37
2017-11-03T04:10:06.088Z,29.57
2017-11-03T04:12:33.573Z,30.13
2017-11-03T04:15:01.679Z,31.67
2017-11-03T04:17:29.164Z,29.70
2017-11-03T04:19:59.391Z,28.90
2017-11-03T04:22:27.669Z,28.00
2017-11-03T04:24:55.165Z,31.10
2017-11-03T04:27:22.660Z,25.57
2017-11-03T04:29:50.158Z,29.87
2017-11-03T04:32:17.703Z,31.53
2017-11-03T04:34:45.256Z,27.27
2017-11-03T04:37:12.834Z,28.37
2017-11-03T04:39:40.352Z,28.00
2017-11-03T04:42:07.867Z,29.33
2017-11-03T04:44:35.495Z,30.93
2017-11-03T04:47:03.017Z,30.77
2017-11-03T04:49:30.476Z,30.93
2017-11-03T04:51:58.005Z,28.90
2017-11-03T04:54:25.469Z,30.53
2017-11-03T04:56:52.980Z,29.70
2017-11-03T04:59:20.440Z,31.07
2017-11-03T05:01:47.936Z,32.23
2017-11-03T05:04:15.388Z,31.13
2017-11-03T05:06:42.845Z,30.83
2017-11-03T05:09:10.370Z,30.47
2017-11-03T05:11:37.880Z,31.70
2017-11-03T05:14:05.430Z,32.47
2017-11-03T05:16:32.919Z,32.30
2017-11-03T05:19:00.454Z,29.57
2017-11-03T05:21:27.958Z,31.27
2017-11-03T05:23:57.870Z,31.40
2017-11-03T05:26:27.990Z,31.73
2017-11-03T05:28:56.609Z,31.43
2017-11-03T05:31:24.083Z,31.70
2017-11-03T05:33:51.643Z,32.07
2017-11-03T05:36:19.201Z,30.13
2017-11-03T05:38:46.745Z,32.40
2017-11-03T05:41:14.338Z,31.27
2017-11-03T05:43:41.871Z,32.77
2017-11-03T05:46:09.399Z,32.20
2017-11-03T05:48:36.999Z,31.43
2017-11-03T05:51:04.668Z,31.47
2017-11-03T05:53:32.214Z,31.17
2017-11-03T05:55:59.806Z,30.13
2017-11-03T05:58:27.351Z,28.13
2017-11-03T06:00:54.868Z,28.83
2017-11-03T06:03:22.468Z,31.23
2017-11-03T06:05:50.009Z,32.30
2017-11-03T06:08:17.582Z,29.40
2017-11-03T06:10:45.070Z,29.77
2017-11-03T06:13:12.882Z,32.10
2017-11-03T06:15:40.361Z,24.93
2017-11-03T06:18:07.874Z,31.57
2017-11-03T06:20:35.449Z,26.77
2017-11-03T06:23:03.034Z,32.50
2017-11-03T06:25:30.543Z,32.60
2017-11-03T06:27:58.048Z,33.13
2017-11-03T06:30:25.517Z,32.00
2017-11-03T06:32:53.006Z,32.37
2017-11-03T06:35:20.508Z,30.17
2017-11-03T06:37:48.000Z,32.37
2017-11-03T06:40:15.533Z,30.30
2017-11-03T06:42:43.133Z,31.23
2017-11-03T06:45:10.639Z,32.07
2017-11-03T06:47:38.143Z,32.00
2017-11-03T06:50:05.718Z,31.67
2017-11-03T06:52:33.230Z,28.50
2017-11-03T06:55:00.704Z,32.30
2017-11-03T06:57:28.218Z,32.23
2017-11-03T06:59:55.731Z,32.60
2017-11-03T07:02:23.211Z,29.57
2017-11-03T07:04:50.753Z,31.73
2017-11-03T07:07:18.373Z,31.27
2017-11-03T07:09:46.058Z,27.30
2017-11-03T07:12:13.703Z,32.50
2017-11-03T07:14:41.198Z,32.43
2017-11-03T07:17:08.913Z,32.57
2017-11-03T07:19:36.408Z,32.53
2017-11-03T07:22:03.940Z,32.27
2017-11-03T07:24:31.417Z,31.97
2017-11-03T07:26:58.932Z,31.60
2017-11-03T07:29:26.492Z,31.53
2017-11-03T07:31:53.975Z,30.80
2017-11-03T07:34:21.483Z,31.50
2017-11-03T07:36:49.154Z,31.87
2017-11-03T07:39:16.700Z,31.20
2017-11-03T07:41:45.158Z,27.93
2017-11-03T07:44:12.657Z,30.87
2017-11-03T07:46:40.272Z,31.83
2017-11-03T07:49:07.870Z,32.20
2017-11-03T07:51:35.530Z,32.77
2017-11-03T07:54:03.213Z,27.17
2017-11-03T07:59:12.533Z,32.53
2017-11-03T08:01:40.098Z,32.30
2017-11-03T08:04:07.645Z,30.93
2017-11-03T08:06:35.203Z,29.93
2017-11-03T08:09:02.767Z,31.57
2017-11-03T08:11:30.304Z,31.97
2017-11-03T08:13:57.818Z,30.50
2017-11-03T08:16:25.308Z,29.27
2017-11-03T08:18:53.104Z,33.93
2017-11-03T08:21:20.647Z,32.00
2017-11-03T08:23:48.208Z,31.03
2017-11-03T08:26:15.763Z,29.57
2017-11-03T08:28:43.387Z,31.43
2017-11-03T08:31:10.886Z,29.63
2017-11-03T08:33:38.463Z,31.87
2017-11-03T08:36:05.932Z,31.60
2017-11-03T08:38:33.528Z,32.03
2017-11-03T08:41:01.021Z,31.60
2017-11-03T08:43:28.568Z,30.90
2017-11-03T08:45:57.015Z,31.37
2017-11-03T08:48:25.491Z,32.03
2017-11-03T08:50:53.064Z,32.10
2017-11-03T08:53:20.713Z,31.63
2017-11-03T08:55:48.360Z,32.27
2017-11-03T08:58:15.914Z,30.90
2017-11-03T09:00:43.582Z,31.57
2017-11-03T09:03:11.182Z,31.20
2017-11-03T09:05:38.815Z,30.00
2017-11-03T09:08:06.594Z,30.90
2017-11-03T09:10:34.144Z,29.53
2017-11-03T09:13:01.649Z,28.40
2017-11-03T09:15:29.180Z,28.80
2017-11-03T09:17:56.740Z,30.77
2017-11-03T09:20:24.342Z,27.57
2017-11-03T09:22:51.954Z,27.67
2017-11-03T09:25:21.290Z,28.13
2017-11-03T09:27:49.001Z,26.70
2017-11-03T09:30:16.615Z,25.63
2017-11-03T09:32:44.106Z,26.37
2017-11-03T09:35:11.692Z,26.03
2017-11-03T09:37:39.170Z,24.67
2017-11-03T09:40:06.740Z,25.00
2017-11-03T09:42:34.203Z,23.47
2017-11-03T09:45:01.737Z,22.73
2017-11-03T09:47:29.297Z,21.80
2017-11-03T09:49:56.909Z,22.83
2017-11-03T09:52:24.571Z,21.37
2017-11-03T09:57:34.220Z,19.07
2017-11-03T10:00:07.852Z,20.00
2017-11-03T10:02:35.505Z,19.10
2017-11-03T10:05:03.298Z,19.27
2017-11-03T10:07:30.844Z,18.80
2017-11-03T10:09:58.383Z,19.40
2017-11-03T10:12:26.152Z,19.97
2017-11-03T10:14:54.358Z,20.57
2017-11-03T10:17:21.837Z,20.70
2017-11-03T10:19:50.236Z,18.97
2017-11-03T10:22:17.728Z,17.77
2017-11-03T10:24:45.333Z,17.27
2017-11-03T10:27:12.877Z,16.27
2017-11-03T10:29:40.556Z,15.63
2017-11-03T10:32:08.134Z,16.90
2017-11-03T10:34:35.621Z,17.23
2017-11-03T10:37:03.121Z,13.77
2017-11-03T10:39:30.609Z,13.43
2017-11-03T10:41:58.100Z,13.87
2017-11-03T10:44:25.704Z,14.10
2017-11-03T10:46:56.252Z,14.07
2017-11-03T10:49:26.484Z,13.23
2017-11-03T10:51:54.139Z,11.87
2017-11-03T10:54:21.607Z,11.57
2017-11-03T10:56:49.206Z,12.83
2017-11-03T10:59:16.703Z,12.50
2017-11-03T11:01:44.221Z,12.23
2017-11-03T11:04:14.502Z,12.60
2017-11-03T11:06:42.455Z,12.17
2017-11-03T11:09:15.742Z,12.77
2017-11-03T11:11:43.273Z,12.93
2017-11-03T11:14:10.745Z,13.87
2017-11-03T11:16:38.250Z,14.07
2017-11-03T11:19:05.742Z,14.87
2017-11-03T11:21:33.265Z,13.37
2017-11-03T11:24:00.747Z,13.43
2017-11-03T11:26:28.333Z,14.30
2017-11-03T11:28:56.129Z,13.20
2017-11-03T11:31:23.652Z,13.20
2017-11-03T11:33:51.115Z,13.33
2017-11-03T11:36:18.598Z,13.73
2017-11-03T11:38:46.124Z,14.57
2017-11-03T11:41:13.631Z,14.13
2017-11-03T11:43:41.194Z,13.80
2017-11-03T11:46:08.835Z,14.43
2017-11-03T11:48:37.276Z,13.00
2017-11-03T11:51:04.820Z,14.60
2017-11-03T11:53:32.337Z,14.60
2017-11-03T11:56:01.456Z,14.30
2017-11-03T11:58:29.039Z,14.13
2017-11-03T12:01:02.289Z,14.43
2017-11-03T12:03:29.887Z,13.73
2017-11-03T12:05:57.381Z,14.47
2017-11-03T12:08:27.449Z,14.13
2017-11-03T12:10:54.943Z,12.50
2017-11-03T12:13:23.623Z,11.90
2017-11-03T12:15:51.847Z,13.47
2017-11-03T12:18:19.360Z,14.07
2017-11-03T12:20:46.857Z,13.37
2017-11-03T12:23:17.770Z,12.40
2017-11-03T12:25:58.980Z,13.50
2017-11-03T12:28:44.955Z,13.00
2017-11-03T12:31:13.087Z,12.73
2017-11-03T12:33:45.640Z,12.05
2017-11-03T12:36:13.306Z,12.18
2017-11-03T12:38:41.008Z,12.35
2017-11-03T12:41:08.571Z,12.52
2017-11-03T12:43:36.109Z,12.50
2017-11-03T12:46:03.660Z,13.02
2017-11-03T12:48:31.218Z,12.50
2017-11-03T12:50:58.949Z,13.15
2017-11-03T12:53:26.557Z,11.98
2017-11-03T12:55:54.051Z,11.38
2017-11-03T12:58:27.632Z,11.93
2017-11-03T13:00:56.011Z,11.27
2017-11-03T13:03:33.401Z,11.70
2017-11-03T13:06:01.618Z,12.55
2017-11-03T13:08:29.094Z,12.40
2017-11-03T13:10:58.629Z,12.60
2017-11-03T13:13:26.192Z,13.25
2017-11-03T13:15:54.800Z,12.88
2017-11-03T13:18:22.361Z,12.85
2017-11-03T13:20:50.001Z,12.93
2017-11-03T13:23:17.552Z,13.07
2017-11-03T13:25:46.032Z,12.23
2017-11-03T13:28:13.650Z,13.18
2017-11-03T13:30:55.261Z,13.20
2017-11-03T13:33:25.699Z,10.95
2017-11-03T13:36:06.428Z,12.60
2017-11-03T13:38:35.229Z,13.00
2017-11-03T13:41:02.832Z,12.65
2017-11-03T13:43:30.308Z,12.65
2017-11-03T13:45:57.795Z,12.27
2017-11-03T13:48:25.306Z,11.93
2017-11-03T13:50:54.292Z,13.38
2017-11-03T13:53:21.758Z,11.50
2017-11-03T13:55:57.521Z,14.13
2017-11-03T13:58:32.958Z,13.57
2017-11-03T14:01:01.681Z,12.48
2017-11-03T14:03:29.376Z,13.13
2017-11-03T14:05:56.878Z,14.52
2017-11-03T14:08:24.373Z,13.37
2017-11-03T14:10:51.885Z,12.87
2017-11-03T14:13:19.359Z,11.87
2017-11-03T14:15:47.013Z,13.80
2017-11-03T14:18:14.585Z,13.27
2017-11-03T14:20:42.218Z,11.17
2017-11-03T14:23:09.725Z,13.00
2017-11-03T14:25:37.216Z,12.60
2017-11-03T14:28:06.884Z,13.17
2017-11-03T14:30:42.409Z,11.30
2017-11-03T14:33:10.257Z,11.83
2017-11-03T14:35:51.086Z,11.23
2017-11-03T14:38:19.241Z,10.67
2017-11-03T14:40:46.803Z,12.10
2017-11-03T14:43:21.124Z,12.93
2017-11-03T14:45:49.368Z,12.37
2017-11-03T14:48:16.842Z,14.80
2017-11-03T14:50:44.374Z,14.93
2017-11-03T14:53:11.841Z,14.97
2017-11-03T14:55:41.329Z,13.67
2017-11-03T14:58:08.969Z,13.97
2017-11-03T15:00:36.526Z,14.33
2017-11-03T15:03:04.019Z,14.00
2017-11-03T15:05:31.556Z,15.67
2017-11-03T15:07:59.049Z,12.57
2017-11-03T15:10:27.036Z,12.77
2017-11-03T15:12:54.541Z,14.87
2017-11-03T15:15:22.052Z,14.37
2017-11-03T15:17:49.574Z,13.83
2017-11-03T15:20:17.057Z,12.67
2017-11-03T15:22:44.546Z,15.67
2017-11-03T15:25:12.067Z,13.23
2017-11-03T15:27:39.550Z,13.77
2017-11-03T15:30:07.232Z,14.33
2017-11-03T15:32:35.199Z,14.10
2017-11-03T15:35:02.693Z,14.07
2017-11-03T15:37:30.192Z,13.83
2017-11-03T15:39:57.705Z,14.30
2017-11-03T15:42:25.270Z,12.50
2017-11-03T15:44:52.776Z,11.13
2017-11-03T15:47:20.752Z,16.60
2017-11-03T15:49:48.280Z,15.53
2017-11-03T15:52:15.800Z,15.50
2017-11-03T15:54:43.309Z,16.23
2017-11-03T15:57:10.844Z,15.20
2017-11-03T15:59:38.335Z,13.53
2017-11-03T16:02:05.834Z,16.60
2017-11-03T16:04:34.298Z,15.70
2017-11-03T16:07:01.790Z,16.73
2017-11-03T16:09:30.427Z,14.70
2017-11-03T16:11:57.938Z,17.37
2017-11-03T16:14:25.803Z,16.13
2017-11-03T16:16:53.390Z,14.83
2017-11-03T16:19:20.908Z,14.23
2017-11-03T16:21:48.529Z,16.93
2017-11-03T16:24:16.154Z,17.63
2017-11-03T16:26:43.794Z,16.80
2017-11-03T16:35:57.065Z,16.37
2017-11-03T16:38:25.753Z,17.03
2017-11-03T16:40:53.873Z,17.17
2017-11-03T16:43:21.461Z,16.80
2017-11-03T16:45:48.990Z,17.07
2017-11-03T16:48:16.524Z,16.00
2017-11-03T16:50:44.235Z,16.00
2017-11-03T16:53:11.952Z,17.23
2017-11-03T16:55:39.873Z,16.40
2017-11-03T16:58:07.427Z,15.33
2017-11-03T17:00:36.777Z,17.03
2017-11-03T17:03:04.565Z,17.13
2017-11-03T17:05:32.264Z,17.90
2017-11-03T17:08:00.627Z,16.53
2017-11-03T17:10:28.182Z,16.53
2017-11-03T17:12:55.724Z,18.37
2017-11-03T17:15:23.204Z,18.37
2017-11-03T17:17:50.830Z,17.00
2017-11-03T17:20:18.417Z,17.40
2017-11-03T17:22:46.665Z,19.33
2017-11-03T17:25:14.354Z,15.97
2017-11-03T17:27:41.878Z,19.73
2017-11-03T17:30:09.598Z,18.93
2017-11-03T17:32:37.260Z,15.17
2017-11-03T17:35:04.795Z,18.90
2017-11-03T17:37:32.307Z,18.20
2017-11-03T17:39:59.834Z,17.53
2017-11-03T17:42:27.700Z,18.20
2017-11-03T17:44:55.244Z,16.27
2017-11-03T17:47:22.799Z,18.23
2017-11-03T17:49:50.323Z,16.90
2017-11-03T17:52:17.831Z,17.37
2017-11-03T17:54:45.332Z,19.37
2017-11-03T17:57:12.836Z,18.80
2017-11-03T17:59:40.332Z,20.17
2017-11-03T18:02:07.809Z,18.43
2017-11-03T18:04:36.355Z,19.37
2017-11-03T18:07:05.164Z,18.33
2017-11-03T18:12:15.205Z,19.17
2017-11-03T18:14:44.563Z,20.70
2017-11-03T18:17:12.186Z,18.93
2017-11-03T18:19:39.762Z,17.40
2017-11-03T18:22:07.432Z,17.43
2017-11-03T18:24:34.914Z,21.00
2017-11-03T18:27:03.339Z,19.60
2017-11-03T18:29:30.801Z,19.43
2017-11-03T18:31:58.313Z,18.63
2017-11-03T18:34:25.812Z,21.57
2017-11-03T18:36:53.321Z,20.20
2017-11-03T18:39:20.873Z,20.80
2017-11-03T18:41:48.428Z,21.93
2017-11-03T18:44:15.956Z,20.47
2017-11-03T18:46:43.560Z,19.10
2017-11-03T18:49:11.056Z,20.57
2017-11-03T18:51:41.175Z,21.37
2017-11-03T18:54:08.676Z,17.73
2017-11-03T18:56:36.140Z,19.70
2017-11-03T18:59:03.656Z,20.90
2017-11-03T19:01:32.440Z,21.67
2017-11-03T19:03:59.922Z,20.03
2017-11-03T19:06:27.405Z,21.40
2017-11-03T19:08:54.913Z,20.23
2017-11-03T19:11:22.449Z,21.40
2017-11-03T19:13:50.005Z,21.57
2017-11-03T19:16:17.504Z,20.63
2017-11-03T19:18:45.006Z,20.47
2017-11-03T19:21:12.552Z,20.20
2017-11-03T19:23:40.851Z,22.77
2017-11-03T19:26:08.416Z,20.43
2017-11-03T19:28:35.918Z,20.80
2017-11-03T19:31:03.456Z,23.47
2017-11-03T19:33:30.961Z,23.77
2017-11-03T19:35:58.471Z,21.97
2017-11-03T19:38:25.965Z,24.53
2017-11-03T19:40:53.464Z,24.17
2017-11-03T19:43:20.940Z,24.67
2017-11-03T19:45:48.488Z,23.10
2017-11-03T19:48:15.967Z,25.33
2017-11-03T19:50:43.482Z,24.53
2017-11-03T19:53:11.212Z,23.60
2017-11-03T19:55:38.739Z,26.13
2017-11-03T19:58:06.194Z,24.87
2017-11-03T20:00:33.680Z,24.83
2017-11-03T20:03:01.163Z,27.50
2017-11-03T20:05:28.639Z,25.13
2017-11-03T20:07:56.171Z,27.43
2017-11-03T20:10:23.678Z,28.27
2017-11-03T20:12:51.183Z,24.50
2017-11-03T20:15:18.689Z,27.53
2017-11-03T20:17:46.188Z,27.70
2017-11-03T20:20:13.645Z,26.30
2017-11-03T20:22:41.139Z,28.17
2017-11-03T20:25:08.623Z,26.70
2017-11-03T20:27:36.394Z,26.67
2017-11-03T20:30:04.618Z,23.73
2017-11-03T20:32:32.717Z,25.90
2017-11-03T20:35:00.650Z,25.57
2017-11-03T20:37:28.654Z,27.40
2017-11-03T20:39:56.382Z,27.00
2017-11-03T20:42:26.708Z,26.37
2017-11-03T20:44:55.179Z,27.70
2017-11-03T20:47:26.236Z,28.20
2017-11-03T20:49:53.757Z,26.40
2017-11-03T20:52:21.240Z,27.00
2017-11-03T20:54:48.759Z,27.73
2017-11-03T20:57:16.345Z,26.73
2017-11-03T20:59:44.580Z,28.17
2017-11-03T21:02:15.457Z,28.00
2017-11-03T21:04:44.735Z,28.10
2017-11-03T21:07:12.221Z,28.10
2017-11-03T21:09:39.707Z,26.30
2017-11-03T21:12:07.215Z,27.87
2017-11-03T21:14:34.714Z,26.93
2017-11-03T21:17:02.224Z,27.30
2017-11-03T21:19:29.780Z,25.93
2017-11-03T21:21:57.260Z,25.97
2017-11-03T21:24:24.734Z,26.73
2017-11-03T21:26:52.226Z,26.07
2017-11-03T21:29:19.778Z,25.67
2017-11-03T21:31:47.600Z,26.87
2017-11-03T21:34:15.124Z,25.10
2017-11-03T21:36:42.662Z,24.73
2017-11-03T21:39:10.149Z,25.73
2017-11-03T21:41:37.641Z,26.00
2017-11-03T21:44:05.091Z,25.60
2017-11-03T21:46:32.651Z,25.40
2017-11-03T21:49:05.243Z,24.47
2017-11-03T21:51:32.768Z,24.43
2017-11-03T21:54:00.286Z,25.90
2017-11-03T21:56:27.852Z,24.83
2017-11-03T21:58:55.378Z,24.73
2017-11-03T22:01:22.890Z,23.93
2017-11-03T22:03:50.381Z,25.50
2017-11-03T22:06:17.835Z,24.53
2017-11-03T22:08:45.327Z,24.77
2017-11-03T22:11:12.809Z,24.20
2017-11-03T22:13:40.324Z,24.67
2017-11-03T22:16:08.730Z,24.53
2017-11-03T22:18:36.232Z,25.83
2017-11-03T22:21:03.767Z,23.77
2017-11-03T22:23:31.307Z,22.17
2017-11-03T22:25:59.547Z,24.20
2017-11-03T22:28:27.100Z,24.23
2017-11-03T22:30:54.608Z,21.77
2017-11-03T22:33:22.145Z,23.77
2017-11-03T22:35:49.627Z,22.37
2017-11-03T22:38:17.136Z,24.03
2017-11-03T22:40:44.627Z,21.03
2017-11-03T22:43:12.173Z,23.27
2017-11-03T22:45:40.589Z,22.27
2017-11-03T22:48:11.164Z,21.73
2017-11-03T22:50:41.385Z,21.87
2017-11-03T22:53:09.597Z,21.80
2017-11-03T22:55:37.288Z,22.50
2017-11-03T22:58:09.271Z,23.43
2017-11-03T23:00:36.951Z,21.23
2017-11-03T23:03:05.313Z,21.97
2017-11-03T23:05:32.866Z,21.70
2017-11-03T23:08:00.425Z,21.13
2017-11-03T23:10:31.342Z,20.97
2017-11-03T23:13:02.008Z,20.30
2017-11-03T23:15:32.353Z,21.60
2017-11-03T23:18:02.254Z,21.43
2017-11-03T23:20:29.818Z,21.23
2017-11-03T23:22:57.280Z,19.97
2017-11-03T23:25:24.906Z,20.23
2017-11-03T23:27:52.423Z,20.37
2017-11-03T23:30:19.896Z,20.00
2017-11-03T23:32:49.469Z,22.07
2017-11-03T23:35:16.948Z,21.50
2017-11-03T23:37:44.455Z,20.50
2017-11-03T23:40:14.448Z,19.50
2017-11-03T23:42:41.934Z,20.27
2017-11-03T23:45:12.392Z,20.77
2017-11-03T23:47:40.016Z,19.80
2017-11-03T23:50:08.881Z,19.80
2017-11-03T23:52:38.072Z,18.23
2017-11-03T23:55:06.752Z,20.33
2017-11-03T23:57:36.052Z,19.43
